sensor_id;sensor_type;location;lat;lon;timestamp;temperature;humidity
20384;DHT22;46458;50.966;7.002;2022-08-30T00:00:51;20.40;99.90
20384;DHT22;46458;50.966;7.002;2022-08-30T00:03:32;20.30;99.90
20384;DHT22;46458;50.966;7.002;2022-08-30T00:06:02;20.30;99.90
20384;DHT22;46458;50.966;7.002;2022-08-30T00:08:34;20.30;99.90
20384;DHT22;46458;50.966;7.002;2022-08-30T00:11:04;20.20;99.90
20384;DHT22;46458;50.966;7.002;2022-08-30T00:13:34;20.20;99.90
20384;DHT22;46458;50.966;7.002;2022-08-30T00:16:06;20.10;99.90
20384;DHT22;46458;50.966;7.002;2022-08-30T00:18:37;20.10;99.90
20384;DHT22;46458;50.966;7.002;2022-08-30T00:21:07;20.10;99.90
20384;DHT22;46458;50.966;7.002;2022-08-30T00:23:37;20.10;99.90
20384;DHT22;46458;50.966;7.002;2022-08-30T00:26:07;20.00;99.90
20384;DHT22;46458;50.966;7.002;2022-08-30T00:28:36;20.00;99.90
20384;DHT22;46458;50.966;7.002;2022-08-30T00:31:07;20.00;99.90
20384;DHT22;46458;50.966;7.002;2022-08-30T00:33:38;20.00;99.90
20384;DHT22;46458;50.966;7.002;2022-08-30T00:36:07;19.90;99.90
20384;DHT22;46458;50.966;7.002;2022-08-30T00:38:36;19.90;99.90
20384;DHT22;46458;50.966;7.002;2022-08-30T00:41:06;19.90;99.90
20384;DHT22;46458;50.966;7.002;2022-08-30T00:43:35;19.90;99.90
20384;DHT22;46458;50.966;7.002;2022-08-30T00:46:07;19.90;99.90
20384;DHT22;46458;50.966;7.002;2022-08-30T00:48:40;19.90;99.90
20384;DHT22;46458;50.966;7.002;2022-08-30T00:51:12;19.90;99.90
20384;DHT22;46458;50.966;7.002;2022-08-30T00:53:46;19.90;99.90
20384;DHT22;46458;50.966;7.002;2022-08-30T00:56:15;19.90;99.90
20384;DHT22;46458;50.966;7.002;2022-08-30T00:58:49;19.90;99.90
20384;DHT22;46458;50.966;7.002;2022-08-30T01:01:24;19.90;99.90
20384;DHT22;46458;50.966;7.002;2022-08-30T01:03:54;19.90;99.90
20384;DHT22;46458;50.966;7.002;2022-08-30T01:06:26;19.90;99.90
20384;DHT22;46458;50.966;7.002;2022-08-30T01:08:55;19.90;99.90
20384;DHT22;46458;50.966;7.002;2022-08-30T01:11:24;19.90;99.90
20384;DHT22;46458;50.966;7.002;2022-08-30T01:13:54;19.90;99.90
20384;DHT22;46458;50.966;7.002;2022-08-30T01:16:29;19.80;99.90
20384;DHT22;46458;50.966;7.002;2022-08-30T01:18:59;19.80;99.90
20384;DHT22;46458;50.966;7.002;2022-08-30T01:21:33;19.90;99.90
20384;DHT22;46458;50.966;7.002;2022-08-30T01:24:07;19.80;99.90
20384;DHT22;46458;50.966;7.002;2022-08-30T01:26:37;19.80;99.90
20384;DHT22;46458;50.966;7.002;2022-08-30T01:29:07;19.80;99.90
20384;DHT22;46458;50.966;7.002;2022-08-30T01:31:38;19.90;99.90
20384;DHT22;46458;50.966;7.002;2022-08-30T01:34:07;19.90;99.90
20384;DHT22;46458;50.966;7.002;2022-08-30T01:36:39;19.90;99.90
20384;DHT22;46458;50.966;7.002;2022-08-30T01:39:14;19.90;99.90
20384;DHT22;46458;50.966;7.002;2022-08-30T01:41:44;20.00;99.90
20384;DHT22;46458;50.966;7.002;2022-08-30T01:44:14;19.90;99.90
20384;DHT22;46458;50.966;7.002;2022-08-30T01:46:45;19.90;99.90
20384;DHT22;46458;50.966;7.002;2022-08-30T01:49:17;19.90;99.90
20384;DHT22;46458;50.966;7.002;2022-08-30T01:51:46;19.90;99.90
20384;DHT22;46458;50.966;7.002;2022-08-30T01:54:18;19.90;99.90
20384;DHT22;46458;50.966;7.002;2022-08-30T01:56:47;19.90;99.90
20384;DHT22;46458;50.966;7.002;2022-08-30T01:59:16;19.90;99.90
20384;DHT22;46458;50.966;7.002;2022-08-30T02:01:45;19.90;99.90
20384;DHT22;46458;50.966;7.002;2022-08-30T02:04:14;19.80;99.90
20384;DHT22;46458;50.966;7.002;2022-08-30T02:06:43;19.90;99.90
20384;DHT22;46458;50.966;7.002;2022-08-30T02:09:12;19.80;99.90
20384;DHT22;46458;50.966;7.002;2022-08-30T02:11:44;19.80;99.90
20384;DHT22;46458;50.966;7.002;2022-08-30T02:14:13;19.80;99.90
20384;DHT22;46458;50.966;7.002;2022-08-30T02:16:42;19.80;99.90
20384;DHT22;46458;50.966;7.002;2022-08-30T02:19:13;19.80;99.90
20384;DHT22;46458;50.966;7.002;2022-08-30T02:21:42;19.80;99.90
20384;DHT22;46458;50.966;7.002;2022-08-30T02:24:11;19.80;99.90
20384;DHT22;46458;50.966;7.002;2022-08-30T02:26:43;19.80;99.90
20384;DHT22;46458;50.966;7.002;2022-08-30T02:29:12;19.80;99.90
20384;DHT22;46458;50.966;7.002;2022-08-30T02:31:40;19.80;99.90
20384;DHT22;46458;50.966;7.002;2022-08-30T02:34:09;19.80;99.90
20384;DHT22;46458;50.966;7.002;2022-08-30T02:36:38;19.80;99.90
20384;DHT22;46458;50.966;7.002;2022-08-30T02:39:08;19.70;99.90
20384;DHT22;46458;50.966;7.002;2022-08-30T02:41:38;19.70;99.90
20384;DHT22;46458;50.966;7.002;2022-08-30T02:44:12;19.70;99.90
20384;DHT22;46458;50.966;7.002;2022-08-30T02:46:41;19.70;99.90
20384;DHT22;46458;50.966;7.002;2022-08-30T02:49:10;19.70;99.90
20384;DHT22;46458;50.966;7.002;2022-08-30T02:51:39;19.70;99.90
20384;DHT22;46458;50.966;7.002;2022-08-30T02:54:11;19.70;99.90
20384;DHT22;46458;50.966;7.002;2022-08-30T02:56:44;19.70;99.90
20384;DHT22;46458;50.966;7.002;2022-08-30T02:59:16;19.60;99.90
20384;DHT22;46458;50.966;7.002;2022-08-30T03:01:45;19.60;99.90
20384;DHT22;46458;50.966;7.002;2022-08-30T03:04:14;19.60;99.90
20384;DHT22;46458;50.966;7.002;2022-08-30T03:06:43;19.50;99.90
20384;DHT22;46458;50.966;7.002;2022-08-30T03:09:13;19.50;99.90
20384;DHT22;46458;50.966;7.002;2022-08-30T03:11:42;19.50;99.90
20384;DHT22;46458;50.966;7.002;2022-08-30T03:14:11;19.40;99.90
20384;DHT22;46458;50.966;7.002;2022-08-30T03:16:42;19.40;99.90
20384;DHT22;46458;50.966;7.002;2022-08-30T03:19:11;19.40;99.90
20384;DHT22;46458;50.966;7.002;2022-08-30T03:21:40;19.40;99.90
20384;DHT22;46458;50.966;7.002;2022-08-30T03:24:13;19.30;99.90
20384;DHT22;46458;50.966;7.002;2022-08-30T03:26:42;19.30;99.90
20384;DHT22;46458;50.966;7.002;2022-08-30T03:29:10;19.30;99.90
20384;DHT22;46458;50.966;7.002;2022-08-30T03:31:42;19.30;99.90
20384;DHT22;46458;50.966;7.002;2022-08-30T03:34:11;19.30;99.90
20384;DHT22;46458;50.966;7.002;2022-08-30T03:36:40;19.30;99.90
20384;DHT22;46458;50.966;7.002;2022-08-30T03:39:10;19.20;99.90
20384;DHT22;46458;50.966;7.002;2022-08-30T03:41:39;19.20;99.90
20384;DHT22;46458;50.966;7.002;2022-08-30T03:44:08;19.20;99.90
20384;DHT22;46458;50.966;7.002;2022-08-30T03:46:37;19.20;99.90
20384;DHT22;46458;50.966;7.002;2022-08-30T03:49:09;19.30;99.90
20384;DHT22;46458;50.966;7.002;2022-08-30T03:51:37;19.20;99.90
20384;DHT22;46458;50.966;7.002;2022-08-30T03:54:06;19.20;99.90
20384;DHT22;46458;50.966;7.002;2022-08-30T03:56:38;19.20;99.90
20384;DHT22;46458;50.966;7.002;2022-08-30T03:59:07;19.20;99.90
20384;DHT22;46458;50.966;7.002;2022-08-30T04:01:37;19.20;99.90
20384;DHT22;46458;50.966;7.002;2022-08-30T04:04:09;19.20;99.90
20384;DHT22;46458;50.966;7.002;2022-08-30T04:06:38;19.10;99.90
20384;DHT22;46458;50.966;7.002;2022-08-30T04:09:07;19.10;99.90
20384;DHT22;46458;50.966;7.002;2022-08-30T04:11:36;19.00;99.90
20384;DHT22;46458;50.966;7.002;2022-08-30T04:14:05;19.00;99.90
20384;DHT22;46458;50.966;7.002;2022-08-30T04:16:34;18.90;99.90
20384;DHT22;46458;50.966;7.002;2022-08-30T04:19:03;18.90;99.90
20384;DHT22;46458;50.966;7.002;2022-08-30T04:21:37;18.90;99.90
20384;DHT22;46458;50.966;7.002;2022-08-30T04:24:07;18.90;99.90
20384;DHT22;46458;50.966;7.002;2022-08-30T04:26:37;18.90;99.90
20384;DHT22;46458;50.966;7.002;2022-08-30T04:29:06;18.90;99.90
20384;DHT22;46458;50.966;7.002;2022-08-30T04:31:41;18.90;99.90
20384;DHT22;46458;50.966;7.002;2022-08-30T04:34:11;18.80;99.90
20384;DHT22;46458;50.966;7.002;2022-08-30T04:36:42;18.80;99.90
20384;DHT22;46458;50.966;7.002;2022-08-30T04:39:11;18.80;99.90
20384;DHT22;46458;50.966;7.002;2022-08-30T04:41:40;18.70;99.90
20384;DHT22;46458;50.966;7.002;2022-08-30T04:44:09;18.70;99.90
20384;DHT22;46458;50.966;7.002;2022-08-30T04:46:37;18.70;99.90
20384;DHT22;46458;50.966;7.002;2022-08-30T04:49:06;18.70;99.90
20384;DHT22;46458;50.966;7.002;2022-08-30T04:51:38;18.60;99.90
20384;DHT22;46458;50.966;7.002;2022-08-30T04:54:10;18.60;99.90
20384;DHT22;46458;50.966;7.002;2022-08-30T04:56:39;18.70;99.90
20384;DHT22;46458;50.966;7.002;2022-08-30T04:59:08;18.70;99.90
20384;DHT22;46458;50.966;7.002;2022-08-30T05:01:38;18.80;99.90
20384;DHT22;46458;50.966;7.002;2022-08-30T05:04:06;18.80;99.90
20384;DHT22;46458;50.966;7.002;2022-08-30T05:06:35;18.90;99.90
20384;DHT22;46458;50.966;7.002;2022-08-30T05:09:04;18.90;99.90
20384;DHT22;46458;50.966;7.002;2022-08-30T05:11:36;19.00;99.90
20384;DHT22;46458;50.966;7.002;2022-08-30T05:14:05;19.00;99.90
20384;DHT22;46458;50.966;7.002;2022-08-30T05:16:34;19.10;99.90
20384;DHT22;46458;50.966;7.002;2022-08-30T05:19:03;19.10;99.90
20384;DHT22;46458;50.966;7.002;2022-08-30T05:21:32;19.10;99.90
20384;DHT22;46458;50.966;7.002;2022-08-30T05:24:02;19.10;99.90
20384;DHT22;46458;50.966;7.002;2022-08-30T05:26:32;19.10;99.90
20384;DHT22;46458;50.966;7.002;2022-08-30T05:29:04;19.10;99.90
20384;DHT22;46458;50.966;7.002;2022-08-30T05:31:35;19.10;99.90
20384;DHT22;46458;50.966;7.002;2022-08-30T05:34:04;19.10;99.90
20384;DHT22;46458;50.966;7.002;2022-08-30T05:36:34;19.10;99.90
20384;DHT22;46458;50.966;7.002;2022-08-30T05:39:03;19.00;99.90
20384;DHT22;46458;50.966;7.002;2022-08-30T05:41:32;19.00;99.90
20384;DHT22;46458;50.966;7.002;2022-08-30T05:44:06;19.00;99.90
20384;DHT22;46458;50.966;7.002;2022-08-30T05:46:36;19.00;99.90
20384;DHT22;46458;50.966;7.002;2022-08-30T05:49:10;19.10;99.90
20384;DHT22;46458;50.966;7.002;2022-08-30T05:51:39;19.00;99.90
20384;DHT22;46458;50.966;7.002;2022-08-30T05:54:11;19.10;99.90
20384;DHT22;46458;50.966;7.002;2022-08-30T05:56:42;19.10;99.90
20384;DHT22;46458;50.966;7.002;2022-08-30T05:59:14;19.10;99.90
20384;DHT22;46458;50.966;7.002;2022-08-30T06:01:45;19.20;99.90
20384;DHT22;46458;50.966;7.002;2022-08-30T06:04:17;19.20;99.90
20384;DHT22;46458;50.966;7.002;2022-08-30T06:06:46;19.30;99.90
20384;DHT22;46458;50.966;7.002;2022-08-30T06:09:15;19.30;99.90
20384;DHT22;46458;50.966;7.002;2022-08-30T06:11:44;19.40;99.90
20384;DHT22;46458;50.966;7.002;2022-08-30T06:14:16;19.50;99.90
20384;DHT22;46458;50.966;7.002;2022-08-30T06:16:45;19.60;99.90
20384;DHT22;46458;50.966;7.002;2022-08-30T06:19:14;19.60;99.90
20384;DHT22;46458;50.966;7.002;2022-08-30T06:21:47;19.60;99.90
20384;DHT22;46458;50.966;7.002;2022-08-30T06:24:18;19.60;99.90
20384;DHT22;46458;50.966;7.002;2022-08-30T06:26:46;19.60;99.90
20384;DHT22;46458;50.966;7.002;2022-08-30T06:29:20;19.70;99.90
20384;DHT22;46458;50.966;7.002;2022-08-30T06:31:50;19.70;99.90
20384;DHT22;46458;50.966;7.002;2022-08-30T06:34:18;19.70;99.90
20384;DHT22;46458;50.966;7.002;2022-08-30T06:36:47;19.70;99.90
20384;DHT22;46458;50.966;7.002;2022-08-30T06:39:16;19.80;99.90
20384;DHT22;46458;50.966;7.002;2022-08-30T06:41:46;19.80;99.90
20384;DHT22;46458;50.966;7.002;2022-08-30T06:44:29;19.90;99.90
20384;DHT22;46458;50.966;7.002;2022-08-30T06:46:58;19.90;99.90
20384;DHT22;46458;50.966;7.002;2022-08-30T06:49:27;19.90;99.90
20384;DHT22;46458;50.966;7.002;2022-08-30T06:51:56;19.90;99.90
20384;DHT22;46458;50.966;7.002;2022-08-30T06:54:25;20.00;99.90
20384;DHT22;46458;50.966;7.002;2022-08-30T06:56:54;20.10;99.90
20384;DHT22;46458;50.966;7.002;2022-08-30T06:59:26;20.20;99.90
20384;DHT22;46458;50.966;7.002;2022-08-30T07:01:56;20.20;99.90
20384;DHT22;46458;50.966;7.002;2022-08-30T07:04:27;20.30;99.90
20384;DHT22;46458;50.966;7.002;2022-08-30T07:06:57;20.40;99.90
20384;DHT22;46458;50.966;7.002;2022-08-30T07:09:26;20.60;99.90
20384;DHT22;46458;50.966;7.002;2022-08-30T07:11:55;20.70;99.90
20384;DHT22;46458;50.966;7.002;2022-08-30T07:14:29;20.70;99.90
20384;DHT22;46458;50.966;7.002;2022-08-30T07:16:58;20.70;99.90
20384;DHT22;46458;50.966;7.002;2022-08-30T07:19:27;20.90;99.90
20384;DHT22;46458;50.966;7.002;2022-08-30T07:21:53;21.00;99.90
20384;DHT22;46458;50.966;7.002;2022-08-30T07:24:22;21.10;99.90
20384;DHT22;46458;50.966;7.002;2022-08-30T07:26:51;21.30;99.90
20384;DHT22;46458;50.966;7.002;2022-08-30T07:29:21;21.40;99.90
20384;DHT22;46458;50.966;7.002;2022-08-30T07:31:53;21.60;99.90
20384;DHT22;46458;50.966;7.002;2022-08-30T07:34:22;21.80;99.90
20384;DHT22;46458;50.966;7.002;2022-08-30T07:36:52;22.00;99.90
20384;DHT22;46458;50.966;7.002;2022-08-30T07:39:24;22.10;99.90
20384;DHT22;46458;50.966;7.002;2022-08-30T07:41:53;22.20;99.90
20384;DHT22;46458;50.966;7.002;2022-08-30T07:44:22;22.30;99.90
20384;DHT22;46458;50.966;7.002;2022-08-30T07:46:56;22.20;99.90
20384;DHT22;46458;50.966;7.002;2022-08-30T07:49:25;22.20;99.90
20384;DHT22;46458;50.966;7.002;2022-08-30T07:51:54;22.20;99.90
20384;DHT22;46458;50.966;7.002;2022-08-30T07:54:23;22.40;99.90
20384;DHT22;46458;50.966;7.002;2022-08-30T07:56:52;22.60;99.90
20384;DHT22;46458;50.966;7.002;2022-08-30T07:59:21;22.80;99.90
20384;DHT22;46458;50.966;7.002;2022-08-30T08:01:50;22.90;99.90
20384;DHT22;46458;50.966;7.002;2022-08-30T08:04:21;23.10;99.90
20384;DHT22;46458;50.966;7.002;2022-08-30T08:06:50;23.40;99.90
20384;DHT22;46458;50.966;7.002;2022-08-30T08:09:19;23.50;99.90
20384;DHT22;46458;50.966;7.002;2022-08-30T08:11:48;23.60;99.90
20384;DHT22;46458;50.966;7.002;2022-08-30T08:14:17;23.60;99.90
20384;DHT22;46458;50.966;7.002;2022-08-30T08:16:48;23.80;99.90
20384;DHT22;46458;50.966;7.002;2022-08-30T08:19:17;23.60;99.90
20384;DHT22;46458;50.966;7.002;2022-08-30T08:21:48;23.40;99.90
20384;DHT22;46458;50.966;7.002;2022-08-30T08:24:19;23.40;99.90
20384;DHT22;46458;50.966;7.002;2022-08-30T08:26:48;23.50;99.90
20384;DHT22;46458;50.966;7.002;2022-08-30T08:29:17;23.80;99.90
20384;DHT22;46458;50.966;7.002;2022-08-30T08:31:47;24.00;99.90
20384;DHT22;46458;50.966;7.002;2022-08-30T08:34:16;24.10;99.90
20384;DHT22;46458;50.966;7.002;2022-08-30T08:36:50;24.10;99.90
20384;DHT22;46458;50.966;7.002;2022-08-30T08:39:19;24.10;99.90
20384;DHT22;46458;50.966;7.002;2022-08-30T08:41:54;24.00;99.90
20384;DHT22;46458;50.966;7.002;2022-08-30T08:44:45;24.20;99.90
20384;DHT22;46458;50.966;7.002;2022-08-30T08:47:16;24.50;99.90
20384;DHT22;46458;50.966;7.002;2022-08-30T08:49:51;24.90;99.90
20384;DHT22;46458;50.966;7.002;2022-08-30T08:52:28;25.10;99.90
20384;DHT22;46458;50.966;7.002;2022-08-30T08:55:12;25.20;99.90
20384;DHT22;46458;50.966;7.002;2022-08-30T08:57:42;25.40;99.90
20384;DHT22;46458;50.966;7.002;2022-08-30T09:00:13;25.50;99.90
20384;DHT22;46458;50.966;7.002;2022-08-30T09:02:44;25.60;99.90
20384;DHT22;46458;50.966;7.002;2022-08-30T09:05:18;25.90;99.90
20384;DHT22;46458;50.966;7.002;2022-08-30T09:07:56;26.30;99.90
20384;DHT22;46458;50.966;7.002;2022-08-30T09:10:26;26.60;99.90
20384;DHT22;46458;50.966;7.002;2022-08-30T09:12:56;26.60;99.90
20384;DHT22;46458;50.966;7.002;2022-08-30T09:15:27;26.80;99.90
20384;DHT22;46458;50.966;7.002;2022-08-30T09:17:59;27.00;99.90
20384;DHT22;46458;50.966;7.002;2022-08-30T09:20:31;27.20;99.90
20384;DHT22;46458;50.966;7.002;2022-08-30T09:23:20;27.30;99.90
20384;DHT22;46458;50.966;7.002;2022-08-30T09:25:51;27.60;99.90
20384;DHT22;46458;50.966;7.002;2022-08-30T09:28:22;28.00;99.80
20384;DHT22;46458;50.966;7.002;2022-08-30T09:31:04;28.30;99.10
20384;DHT22;46458;50.966;7.002;2022-08-30T09:33:34;28.80;96.30
20384;DHT22;46458;50.966;7.002;2022-08-30T09:36:15;28.60;96.10
20384;DHT22;46458;50.966;7.002;2022-08-30T09:38:56;28.70;94.90
20384;DHT22;46458;50.966;7.002;2022-08-30T09:41:32;29.10;95.70
20384;DHT22;46458;50.966;7.002;2022-08-30T09:44:07;29.30;94.90
20384;DHT22;46458;50.966;7.002;2022-08-30T09:46:43;29.50;93.70
20384;DHT22;46458;50.966;7.002;2022-08-30T09:49:32;29.90;94.10
20384;DHT22;46458;50.966;7.002;2022-08-30T09:52:17;30.00;92.40
20384;DHT22;46458;50.966;7.002;2022-08-30T09:55:08;30.00;90.70
20384;DHT22;46458;50.966;7.002;2022-08-30T09:57:46;30.10;90.90
20384;DHT22;46458;50.966;7.002;2022-08-30T10:00:22;30.20;90.60
20384;DHT22;46458;50.966;7.002;2022-08-30T10:03:14;30.30;90.70
20384;DHT22;46458;50.966;7.002;2022-08-30T10:05:51;30.70;90.50
20384;DHT22;46458;50.966;7.002;2022-08-30T10:08:34;30.90;89.00
20384;DHT22;46458;50.966;7.002;2022-08-30T10:11:15;31.20;90.10
20384;DHT22;46458;50.966;7.002;2022-08-30T10:14:02;31.90;87.40
20384;DHT22;46458;50.966;7.002;2022-08-30T10:16:44;33.10;85.40
20384;DHT22;46458;50.966;7.002;2022-08-30T10:19:25;33.30;83.80
20384;DHT22;46458;50.966;7.002;2022-08-30T10:22:01;34.70;81.00
20384;DHT22;46458;50.966;7.002;2022-08-30T10:24:35;34.00;81.90
20384;DHT22;46458;50.966;7.002;2022-08-30T10:27:11;33.00;82.00
20384;DHT22;46458;50.966;7.002;2022-08-30T10:29:45;32.00;82.70
20384;DHT22;46458;50.966;7.002;2022-08-30T10:32:19;31.50;84.50
20384;DHT22;46458;50.966;7.002;2022-08-30T10:34:52;31.30;84.10
20384;DHT22;46458;50.966;7.002;2022-08-30T10:37:24;30.70;83.70
20384;DHT22;46458;50.966;7.002;2022-08-30T10:39:56;30.60;86.60
20384;DHT22;46458;50.966;7.002;2022-08-30T10:42:52;30.50;83.90
20384;DHT22;46458;50.966;7.002;2022-08-30T10:45:22;30.70;83.70
20384;DHT22;46458;50.966;7.002;2022-08-30T10:47:58;30.40;85.90
20384;DHT22;46458;50.966;7.002;2022-08-30T10:50:33;30.10;84.50
20384;DHT22;46458;50.966;7.002;2022-08-30T10:53:09;30.00;85.20
20384;DHT22;46458;50.966;7.002;2022-08-30T10:55:44;29.90;86.60
20384;DHT22;46458;50.966;7.002;2022-08-30T10:58:17;30.20;85.60
20384;DHT22;46458;50.966;7.002;2022-08-30T11:00:59;30.00;84.00
20384;DHT22;46458;50.966;7.002;2022-08-30T11:06:52;30.10;84.10
20384;DHT22;46458;50.966;7.002;2022-08-30T11:09:34;30.10;84.90
20384;DHT22;46458;50.966;7.002;2022-08-30T11:12:32;30.00;84.90
20384;DHT22;46458;50.966;7.002;2022-08-30T11:15:16;30.20;85.50
20384;DHT22;46458;50.966;7.002;2022-08-30T11:17:53;30.90;84.10
20384;DHT22;46458;50.966;7.002;2022-08-30T11:20:30;30.80;83.60
20384;DHT22;46458;50.966;7.002;2022-08-30T11:23:23;30.50;84.40
20384;DHT22;46458;50.966;7.002;2022-08-30T11:25:54;30.30;85.30
20384;DHT22;46458;50.966;7.002;2022-08-30T11:31:36;29.70;85.70
20384;DHT22;46458;50.966;7.002;2022-08-30T11:34:09;29.50;87.10
20384;DHT22;46458;50.966;7.002;2022-08-30T11:37:05;29.30;87.40
20384;DHT22;46458;50.966;7.002;2022-08-30T11:40:02;29.30;87.30
20384;DHT22;46458;50.966;7.002;2022-08-30T11:42:35;29.60;88.20
20384;DHT22;46458;50.966;7.002;2022-08-30T11:48:07;30.00;86.70
20384;DHT22;46458;50.966;7.002;2022-08-30T11:50:51;30.30;85.90
20384;DHT22;46458;50.966;7.002;2022-08-30T11:53:26;30.80;86.30
20384;DHT22;46458;50.966;7.002;2022-08-30T11:56:02;31.00;85.20
20384;DHT22;46458;50.966;7.002;2022-08-30T11:58:47;30.80;85.00
20384;DHT22;46458;50.966;7.002;2022-08-30T12:01:21;30.80;84.90
20384;DHT22;46458;50.966;7.002;2022-08-30T12:04:08;30.70;86.60
20384;DHT22;46458;50.966;7.002;2022-08-30T12:06:45;31.00;84.60
20384;DHT22;46458;50.966;7.002;2022-08-30T12:18:08;30.10;86.00
20384;DHT22;46458;50.966;7.002;2022-08-30T12:20:54;30.30;86.60
20384;DHT22;46458;50.966;7.002;2022-08-30T12:23:32;30.20;86.70
20384;DHT22;46458;50.966;7.002;2022-08-30T12:26:13;30.10;86.40
20384;DHT22;46458;50.966;7.002;2022-08-30T12:28:44;29.90;85.70
20384;DHT22;46458;50.966;7.002;2022-08-30T12:31:18;30.00;85.60
20384;DHT22;46458;50.966;7.002;2022-08-30T12:33:49;30.00;86.80
20384;DHT22;46458;50.966;7.002;2022-08-30T12:36:37;30.70;85.30
20384;DHT22;46458;50.966;7.002;2022-08-30T12:39:10;31.00;85.00
20384;DHT22;46458;50.966;7.002;2022-08-30T12:41:39;31.50;84.40
20384;DHT22;46458;50.966;7.002;2022-08-30T12:44:13;32.00;81.90
20384;DHT22;46458;50.966;7.002;2022-08-30T12:46:45;32.70;80.40
20384;DHT22;46458;50.966;7.002;2022-08-30T12:49:17;34.30;78.10
20384;DHT22;46458;50.966;7.002;2022-08-30T12:51:49;34.10;77.20
20384;DHT22;46458;50.966;7.002;2022-08-30T12:54:20;33.90;78.00
20384;DHT22;46458;50.966;7.002;2022-08-30T12:56:53;34.90;76.50
20384;DHT22;46458;50.966;7.002;2022-08-30T12:59:38;34.40;77.20
20384;DHT22;46458;50.966;7.002;2022-08-30T13:02:15;33.40;78.20
20384;DHT22;46458;50.966;7.002;2022-08-30T13:04:45;32.50;79.90
20384;DHT22;46458;50.966;7.002;2022-08-30T13:07:32;31.40;82.00
20384;DHT22;46458;50.966;7.002;2022-08-30T13:10:11;31.00;83.50
20384;DHT22;46458;50.966;7.002;2022-08-30T13:13:01;31.20;84.70
20384;DHT22;46458;50.966;7.002;2022-08-30T13:15:33;31.30;85.00
20384;DHT22;46458;50.966;7.002;2022-08-30T13:18:24;30.90;87.50
20384;DHT22;46458;50.966;7.002;2022-08-30T13:21:18;30.70;87.10
20384;DHT22;46458;50.966;7.002;2022-08-30T13:23:53;30.70;86.40
20384;DHT22;46458;50.966;7.002;2022-08-30T13:26:24;30.60;86.10
20384;DHT22;46458;50.966;7.002;2022-08-30T13:28:56;31.20;85.60
20384;DHT22;46458;50.966;7.002;2022-08-30T13:31:27;31.40;83.90
20384;DHT22;46458;50.966;7.002;2022-08-30T13:33:57;31.40;84.30
20384;DHT22;46458;50.966;7.002;2022-08-30T13:36:28;31.30;85.00
20384;DHT22;46458;50.966;7.002;2022-08-30T13:39:01;31.20;85.00
20384;DHT22;46458;50.966;7.002;2022-08-30T13:41:30;31.10;85.30
20384;DHT22;46458;50.966;7.002;2022-08-30T13:43:59;31.00;84.70
20384;DHT22;46458;50.966;7.002;2022-08-30T13:46:30;30.90;85.80
20384;DHT22;46458;50.966;7.002;2022-08-30T13:49:03;30.80;86.60
20384;DHT22;46458;50.966;7.002;2022-08-30T13:51:32;30.90;87.00
20384;DHT22;46458;50.966;7.002;2022-08-30T13:54:04;31.00;85.80
20384;DHT22;46458;50.966;7.002;2022-08-30T13:56:33;30.90;86.00
20384;DHT22;46458;50.966;7.002;2022-08-30T13:59:02;30.90;86.00
20384;DHT22;46458;50.966;7.002;2022-08-30T14:01:31;31.10;86.50
20384;DHT22;46458;50.966;7.002;2022-08-30T14:04:00;31.20;85.80
20384;DHT22;46458;50.966;7.002;2022-08-30T14:06:31;31.30;84.50
20384;DHT22;46458;50.966;7.002;2022-08-30T14:09:00;31.10;84.50
20384;DHT22;46458;50.966;7.002;2022-08-30T14:11:33;31.30;85.30
20384;DHT22;46458;50.966;7.002;2022-08-30T14:14:03;31.40;85.00
20384;DHT22;46458;50.966;7.002;2022-08-30T14:16:33;31.50;85.10
20384;DHT22;46458;50.966;7.002;2022-08-30T14:19:03;31.40;84.70
20384;DHT22;46458;50.966;7.002;2022-08-30T14:21:33;31.60;84.80
20384;DHT22;46458;50.966;7.002;2022-08-30T14:24:03;32.00;85.30
20384;DHT22;46458;50.966;7.002;2022-08-30T14:26:36;32.10;85.30
20384;DHT22;46458;50.966;7.002;2022-08-30T14:29:10;32.50;84.90
20384;DHT22;46458;50.966;7.002;2022-08-30T14:31:40;33.50;83.50
20384;DHT22;46458;50.966;7.002;2022-08-30T14:34:10;35.00;80.30
20384;DHT22;46458;50.966;7.002;2022-08-30T14:36:41;35.20;78.70
20384;DHT22;46458;50.966;7.002;2022-08-30T14:39:13;34.50;79.20
20384;DHT22;46458;50.966;7.002;2022-08-30T14:41:47;34.60;79.30
20384;DHT22;46458;50.966;7.002;2022-08-30T14:44:18;34.00;79.30
20384;DHT22;46458;50.966;7.002;2022-08-30T14:46:48;33.10;80.50
20384;DHT22;46458;50.966;7.002;2022-08-30T14:49:18;32.30;81.80
20384;DHT22;46458;50.966;7.002;2022-08-30T14:51:51;32.00;83.10
20384;DHT22;46458;50.966;7.002;2022-08-30T14:54:24;31.80;83.20
20384;DHT22;46458;50.966;7.002;2022-08-30T14:56:56;31.60;83.30
20384;DHT22;46458;50.966;7.002;2022-08-30T14:59:26;31.70;83.80
20384;DHT22;46458;50.966;7.002;2022-08-30T15:01:55;31.80;84.60
20384;DHT22;46458;50.966;7.002;2022-08-30T15:04:24;31.70;84.80
20384;DHT22;46458;50.966;7.002;2022-08-30T15:06:54;31.30;85.30
20384;DHT22;46458;50.966;7.002;2022-08-30T15:09:24;31.40;84.80
20384;DHT22;46458;50.966;7.002;2022-08-30T15:11:57;31.50;84.90
20384;DHT22;46458;50.966;7.002;2022-08-30T15:14:29;31.80;84.60
20384;DHT22;46458;50.966;7.002;2022-08-30T15:16:59;32.10;83.90
20384;DHT22;46458;50.966;7.002;2022-08-30T15:19:29;32.50;83.80
20384;DHT22;46458;50.966;7.002;2022-08-30T15:22:00;32.80;83.20
20384;DHT22;46458;50.966;7.002;2022-08-30T15:24:30;32.20;83.30
20384;DHT22;46458;50.966;7.002;2022-08-30T15:27:02;31.80;84.20
20384;DHT22;46458;50.966;7.002;2022-08-30T15:29:31;31.90;84.00
20384;DHT22;46458;50.966;7.002;2022-08-30T15:32:01;32.50;83.30
20384;DHT22;46458;50.966;7.002;2022-08-30T15:34:30;32.90;82.40
20384;DHT22;46458;50.966;7.002;2022-08-30T15:36:59;33.20;81.80
20384;DHT22;46458;50.966;7.002;2022-08-30T15:39:30;33.40;83.30
20384;DHT22;46458;50.966;7.002;2022-08-30T15:42:01;33.60;81.70
20384;DHT22;46458;50.966;7.002;2022-08-30T15:44:30;33.80;80.80
20384;DHT22;46458;50.966;7.002;2022-08-30T15:46:59;33.60;81.30
20384;DHT22;46458;50.966;7.002;2022-08-30T15:49:28;32.90;81.50
20384;DHT22;46458;50.966;7.002;2022-08-30T15:52:00;32.20;83.00
20384;DHT22;46458;50.966;7.002;2022-08-30T15:54:30;31.70;83.90
20384;DHT22;46458;50.966;7.002;2022-08-30T15:57:01;31.70;84.70
20384;DHT22;46458;50.966;7.002;2022-08-30T15:59:30;31.70;85.40
20384;DHT22;46458;50.966;7.002;2022-08-30T16:01:59;31.50;84.20
20384;DHT22;46458;50.966;7.002;2022-08-30T16:04:28;30.80;85.20
20384;DHT22;46458;50.966;7.002;2022-08-30T16:06:57;30.30;86.30
20384;DHT22;46458;50.966;7.002;2022-08-30T16:09:26;30.10;86.90
20384;DHT22;46458;50.966;7.002;2022-08-30T16:11:54;30.10;87.20
20384;DHT22;46458;50.966;7.002;2022-08-30T16:14:26;30.30;87.30
20384;DHT22;46458;50.966;7.002;2022-08-30T16:16:56;31.40;85.50
20384;DHT22;46458;50.966;7.002;2022-08-30T16:19:25;31.50;85.50